Time;durP1;ratioP1;P1;durP2;ratioP2;P2;SDS_P1;SDS_P2;PMS_P1;PMS_P2;Temp;Humidity;BMP_temperature;BMP_pressure;BME280_temperature;BME280_humidity;BME280_pressure;Samples;Min_cycle;Max_cycle;Signal;HPM_P1;HPM_P2
2022/01/26 00:06:28;;;;;;;227.70;68.57;;;;;;;1.44;77.01;103181.34;4774600;30;20042;-78
2022/01/26 00:09:49;;;;;;;228.82;70.50;;;;;;;2.61;77.18;103387.47;4787707;30;20027;-78
2022/01/26 00:12:23;;;;;;;215.20;68.30;;;;;;;2.15;77.31;103315.53;4787730;30;20070;-77
2022/01/26 00:15:08;;;;;;;213.63;65.35;;;;;;;2.33;77.45;103340.38;4787653;30;20024;-78
2022/01/26 00:17:54;;;;;;;212.40;64.07;;;;;;;2.61;76.98;103391.72;4787696;29;20032;-78
2022/01/26 00:27:48;;;;;;;229.65;69.22;;;;;;;1.39;77.84;103189.78;4767756;30;20431;-77
2022/01/26 00:42:58;;;;;;;217.98;68.32;;;;;;;1.49;77.40;103193.31;4680114;30;20068;-78
2022/01/26 00:45:25;;;;;;;226.00;67.20;;;;;;;2.47;77.79;103355.88;4666201;30;20041;-77
2022/01/26 00:48:31;;;;;;;223.25;65.18;;;;;;;1.43;77.94;103183.88;4774578;24;20087;-78
2022/01/26 00:51:28;;;;;;;236.48;69.32;;;;;;;2.56;78.14;103363.63;4786914;30;20110;-78
2022/01/26 00:54:05;;;;;;;225.70;69.15;;;;;;;2.08;77.73;103301.03;4803191;29;20126;-78
2022/01/26 00:56:44;;;;;;;;;;;;;;;;;;;;;
2022/01/26 01:00:13;;;;;;;226.05;67.78;;;;;;;2.54;77.63;103366.13;4803367;29;20053;-78
2022/01/26 01:03:07;;;;;;;;;;;;;;;;;;;;;
2022/01/26 01:05:42;;;;;;;231.73;67.10;;;;;;;1.41;77.73;103180.47;4735393;30;20516;-77
2022/01/26 01:08:13;;;;;;;240.32;69.68;;;;;;;1.76;77.86;103241.16;4735789;30;20044;-78
2022/01/26 01:10:56;;;;;;;241.25;71.07;;;;;;;2.05;78.47;103282.28;4735255;30;20056;-77
2022/01/26 01:14:02;;;;;;;229.57;66.72;;;;;;;1.56;77.69;103200.16;4735531;30;20048;-78
2022/01/26 01:17:25;;;;;;;230.20;68.53;;;;;;;1.27;77.79;103148.88;4683482;30;20177;-79
2022/01/26 01:23:08;;;;;;;230.32;70.05;;;;;;;1.37;78.35;103155.78;4683726;30;20524;-78
2022/01/26 01:29:06;;;;;;;;;;;;;;;;;;;;;
2022/01/26 01:34:35;;;;;;;243.32;73.40;;;;;;;2.13;78.53;103260.28;4682906;30;20054;-78
2022/01/26 01:37:29;;;;;;;230.90;70.38;;;;;;;2.03;78.36;103244.03;4685006;30;20129;-78
2022/01/26 01:39:55;;;;;;;230.40;69.10;;;;;;;1.25;78.67;103123.41;4717256;30;20049;-78
2022/01/26 01:42:20;;;;;;;226.85;71.03;;;;;;;2.47;78.48;103321.03;4717710;30;20040;-78
2022/01/26 01:45:06;;;;;;;229.30;70.25;;;;;;;2.51;78.99;103324.44;4732268;30;20068;-78
2022/01/26 01:48:00;;;;;;;216.07;65.20;;;;;;;2.52;78.75;103328.69;4698747;30;20057;-78
2022/01/26 01:50:25;;;;;;;215.73;65.57;;;;;;;2.52;78.98;103336.34;4682441;30;20050;-77
2022/01/26 01:52:58;;;;;;;226.60;69.78;;;;;;;2.32;79.45;103307.22;4699311;30;20415;-79
2022/01/26 01:55:26;;;;;;;212.18;67.32;;;;;;;2.47;78.64;103320.16;4734906;30;20108;-78
2022/01/26 01:57:52;;;;;;;211.70;66.90;;;;;;;2.50;79.38;103326.13;4734840;30;20100;-78
2022/01/26 02:00:17;;;;;;;208.82;66.55;;;;;;;2.48;79.03;103330.38;4734908;30;20074;-77
2022/01/26 02:02:42;;;;;;;217.85;67.57;;;;;;;2.48;79.37;103317.63;4734775;30;20048;-78
2022/01/26 02:05:08;;;;;;;210.88;66.78;;;;;;;2.45;79.10;103322.66;4734499;30;20099;-78
2022/01/26 02:07:39;;;;;;;215.70;66.20;;;;;;;2.43;78.91;103318.41;4734627;30;20048;-78
2022/01/26 02:10:09;;;;;;;217.40;66.18;;;;;;;2.42;79.25;103299.69;4734874;30;20497;-78
2022/01/26 02:12:37;;;;;;;214.52;66.55;;;;;;;2.11;78.67;103260.28;4734504;30;20132;-78
2022/01/26 02:15:10;;;;;;;200.30;64.82;;;;;;;2.12;78.52;103261.13;4719833;30;20466;-79
2022/01/26 02:56:07;;;;;;;206.15;67.18;;;;;;;2.11;79.79;103244.97;4751793;30;20047;-78
2022/01/26 03:06:31;;;;;;;207.57;65.72;;;;;;;2.20;79.11;103255.28;4806981;29;20377;-78
2022/01/26 03:09:02;;;;;;;202.32;65.45;;;;;;;2.10;79.15;103233.06;4806987;29;20035;-78
2022/01/26 03:11:31;;;;;;;200.38;65.45;;;;;;;1.96;78.97;103199.78;4806950;29;20034;-78
2022/01/26 03:14:06;;;;;;;214.45;63.88;;;;;;;2.22;79.17;103248.50;4806973;29;20057;-79
2022/01/26 03:16:39;;;;;;;211.88;66.50;;;;;;;2.10;79.51;103235.63;4806840;29;20114;-78
2022/01/26 03:19:21;;;;;;;209.98;66.72;;;;;;;2.21;79.83;103253.59;4807047;29;20035;-77
2022/01/26 03:30:04;;;;;;;204.60;63.13;;;;;;;2.19;79.94;103256.13;4806900;29;20073;-77
2022/01/26 03:33:07;;;;;;;206.90;64.25;;;;;;;2.22;79.92;103255.28;4805248;29;20412;-77
2022/01/26 03:35:54;;;;;;;204.75;63.95;;;;;;;2.02;79.32;103219.41;4806177;29;20042;-78
2022/01/26 03:56:07;;;;;;;218.40;65.05;;;;;;;2.27;80.02;103233.25;5024642;24;20055;-78
2022/01/26 03:58:51;;;;;;;208.23;62.67;;;;;;;1.05;79.94;103041.75;4787939;30;20700;-78
2022/01/26 04:05:00;;;;;;;213.75;63.00;;;;;;;2.21;80.04;103241.69;4809462;24;20055;-78
2022/01/26 04:07:26;;;;;;;220.30;64.10;;;;;;;1.80;80.34;103172.44;4787354;29;20453;-78
2022/01/26 04:10:55;;;;;;;218.70;66.40;;;;;;;2.18;80.43;103248.47;4787168;30;20118;-78
2022/01/26 04:13:46;;;;;;;229.80;65.55;;;;;;;2.21;80.74;103235.75;4787396;30;20499;-78
2022/01/26 04:16:12;;;;;;;219.77;65.82;;;;;;;1.79;80.71;103177.53;4938058;24;20055;-79
2022/01/26 04:19:30;;;;;;;219.40;66.13;;;;;;;2.20;80.82;103242.53;4769821;30;20034;-78
2022/01/26 04:24:58;;;;;;;216.90;68.10;;;;;;;2.18;80.92;103236.56;4913970;24;20067;-78
2022/01/26 04:30:23;;;;;;;220.02;62.70;;;;;;;1.07;80.37;103068.03;4788019;30;20050;-78
2022/01/26 04:43:03;;;;;;;217.65;64.57;;;;;;;2.08;80.85;103279.78;2376203;24;21224;-78
2022/01/26 04:57:44;;;;;;;234.50;68.03;;;;;;;1.06;81.01;103127.41;4797453;24;20059;-78
2022/01/26 05:00:27;;;;;;;221.40;64.00;;;;;;;0.88;80.88;103094.09;4787368;30;20051;-79
2022/01/26 05:09:38;;;;;;;;;;;;;;;;;;;;;
2022/01/26 05:16:12;;;;;;;219.75;66.43;;;;;;;2.04;81.65;103262.72;4769444;30;20519;-78
2022/01/26 05:19:05;;;;;;;228.75;63.33;;;;;;;0.96;81.28;103068.75;4787075;30;20039;-79
2022/01/26 05:25:55;;;;;;;217.52;61.92;;;;;;;1.95;81.52;103223.56;4713795;30;20037;-78
2022/01/26 05:31:29;;;;;;;237.98;66.65;;;;;;;1.93;81.67;103220.16;4793290;24;20469;-78
2022/01/26 05:34:09;;;;;;;230.73;68.05;;;;;;;1.25;81.33;103120.88;4769021;30;20048;-79
2022/01/26 05:36:56;;;;;;;226.88;69.45;;;;;;;1.92;81.99;103243.06;4769003;30;20040;-79
2022/01/26 05:39:52;;;;;;;225.65;63.13;;;;;;;1.09;81.69;103086.75;4768710;30;20082;-79
2022/01/26 05:42:30;;;;;;;223.00;64.80;;;;;;;1.68;81.64;103197.78;4768965;30;20028;-78
2022/01/26 05:47:53;;;;;;;218.65;64.18;;;;;;;1.90;82.35;103239.66;3399716;24;20080;-79
2022/01/26 05:50:25;;;;;;;221.73;66.47;;;;;;;1.40;82.50;103154.16;4772306;30;20032;-79
2022/01/26 05:52:54;;;;;;;;;;;;;;;1.92;82.19;103238.81;4772727;30;20032;-79
2022/01/26 05:56:09;;;;;;;226.30;66.47;;;;;;;1.88;82.10;103226.03;4771976;30;19918;-80
2022/01/26 05:58:53;;;;;;;237.20;67.47;;;;;;;1.54;82.49;103168.75;4772069;30;20040;-80
2022/01/26 06:08:59;;;;;;;234.25;69.57;;;;;;;1.67;82.92;103188.41;4789890;29;20051;-80
2022/01/26 06:11:24;;;;;;;225.43;67.40;;;;;;;1.83;83.09;103217.47;4790047;30;20050;-80
2022/01/26 06:13:50;;;;;;;223.98;66.25;;;;;;;1.83;83.15;103228.53;4788613;30;20067;-79
2022/01/26 06:16:16;;;;;;;230.02;69.55;;;;;;;1.75;83.09;103226.72;4789737;30;20106;-79
2022/01/26 06:18:43;;;;;;;226.63;67.78;;;;;;;1.81;83.21;103232.75;4789723;30;20469;-79
2022/01/26 06:21:09;;;;;;;229.98;72.07;;;;;;;1.70;83.42;103212.25;4789616;29;20042;-79
2022/01/26 06:23:34;;;;;;;221.15;66.72;;;;;;;1.82;82.87;103205.56;4789421;30;20051;-80
2022/01/26 06:26:00;;;;;;;245.40;68.65;;;;;;;1.83;83.61;103215.78;4789418;30;20110;-80
2022/01/26 06:28:27;;;;;;;235.88;71.03;;;;;;;1.81;83.33;103222.56;4789582;30;20063;-80
2022/01/26 06:53:00;;;;;;;231.10;65.72;;;;;;;1.88;84.24;103228.59;4789678;30;20078;-79
2022/01/26 06:59:04;;;;;;;234.57;71.65;;;;;;;1.88;84.08;103221.81;4986710;24;20496;-80
2022/01/26 07:20:09;;;;;;;237.38;68.45;;;;;;;1.87;85.89;103239.59;4764663;24;20051;-78
2022/01/26 07:23:09;;;;;;;239.18;73.07;;;;;;;1.88;86.13;103254.06;4788491;30;20568;-79
2022/01/26 07:26:00;;;;;;;241.25;68.72;;;;;;;1.89;86.22;103253.22;4788256;29;20485;-78
2022/01/26 07:28:27;;;;;;;250.20;74.35;;;;;;;0.85;86.21;103072.00;4788473;30;20485;-78
2022/01/26 07:31:30;;;;;;;249.60;72.57;;;;;;;1.86;86.72;103253.16;4772275;30;20038;-78
2022/01/26 07:34:41;;;;;;;255.35;72.70;;;;;;;1.85;87.15;103248.91;4788344;30;20481;-78
2022/01/26 07:37:58;;;;;;;268.77;75.78;;;;;;;1.86;87.01;103242.97;4785675;30;20496;-78
2022/01/26 08:11:14;;;;;;;293.88;80.60;;;;;;;1.97;89.43;103274.56;4803878;29;20062;-77
2022/01/26 08:17:22;;;;;;;298.83;81.13;;;;;;;1.97;89.79;103275.41;4794565;29;20037;-78
2022/01/26 09:15:31;;;;;;;304.00;74.68;;;;;;;1.26;89.24;103096.25;5045655;24;20018;-81
2022/01/26 09:17:59;;;;;;;302.63;75.90;;;;;;;1.52;89.42;103132.22;5008050;24;20136;-80
2022/01/26 09:20:34;;;;;;;325.17;79.38;;;;;;;2.32;89.10;103267.28;4786244;30;20109;-82
2022/01/26 09:23:21;;;;;;;299.42;78.05;;;;;;;2.43;89.06;103282.69;4788546;29;20031;-82
2022/01/26 09:25:53;;;;;;;308.92;77.88;;;;;;;2.05;88.98;103210.91;4791427;30;20039;-81
2022/01/26 09:28:25;;;;;;;326.38;79.90;;;;;;;1.40;89.42;103097.31;4790863;29;20460;-82
2022/01/26 09:30:53;;;;;;;309.92;79.22;;;;;;;2.50;89.48;103292.13;4791423;30;20392;-80
2022/01/26 09:37:26;;;;;;;307.67;85.57;;;;;;;2.59;88.63;103287.97;4791491;30;20068;-84
2022/01/26 09:40:20;;;;;;;292.73;79.38;;;;;;;2.60;88.53;103273.53;4771461;30;20143;-82
2022/01/26 09:53:01;;;;;;;299.60;74.90;;;;;;;2.69;88.05;103254.91;4789125;30;20462;-82
2022/01/26 10:19:35;;;;;;;303.75;74.93;;;;;;;2.86;87.38;103255.91;4770996;30;20048;-83
2022/01/26 10:22:00;;;;;;;275.45;73.95;;;;;;;2.86;86.89;103246.56;4770491;30;20047;-82
2022/01/26 10:24:28;;;;;;;287.08;74.80;;;;;;;2.54;86.65;103190.16;4769912;30;20075;-81
2022/01/26 10:26:59;;;;;;;281.88;80.88;;;;;;;2.45;87.24;103177.31;4769946;30;20079;-81
2022/01/26 10:29:24;;;;;;;268.83;70.70;;;;;;;2.72;86.84;103219.19;4769867;30;20126;-81
2022/01/26 10:45:02;;;;;;;245.48;66.63;;;;;;;2.71;87.14;103274.47;4991141;24;20059;-81
2022/01/26 10:47:33;;;;;;;253.43;70.80;;;;;;;2.99;87.11;103307.91;4790005;30;20023;-83
2022/01/26 10:50:29;;;;;;;256.17;70.43;;;;;;;3.02;87.37;103300.25;4773867;30;20480;-83
2022/01/26 10:59:23;;;;;;;249.25;67.95;;;;;;;3.13;86.78;103280.75;4772251;30;20377;-86
2022/01/26 11:02:33;;;;;;;245.48;69.85;;;;;;;3.10;86.92;103275.63;4770515;30;20035;-85
2022/01/26 11:04:58;;;;;;;253.30;67.45;;;;;;;2.40;86.76;103163.69;4771540;30;20512;-80
2022/01/26 11:10:03;;;;;;;249.70;67.60;;;;;;;3.09;87.00;103263.72;1985117;24;20476;-81
2022/01/26 11:12:53;;;;;;;229.23;63.47;;;;;;;3.20;87.46;103279.97;4754090;30;20046;-82
2022/01/26 11:15:22;;;;;;;236.15;64.20;;;;;;;3.11;86.60;103272.25;4746106;24;20078;-84
2022/01/26 11:17:48;;;;;;;239.85;67.95;;;;;;;3.20;86.92;103267.19;4771439;30;20081;-81
2022/01/26 11:20:22;;;;;;;235.48;67.18;;;;;;;3.22;86.71;103267.22;4770293;30;20036;-81
2022/01/26 11:22:50;;;;;;;234.10;66.82;;;;;;;3.16;86.69;103256.13;5170933;24;20108;-80
2022/01/26 11:25:16;;;;;;;250.35;66.72;;;;;;;3.25;86.27;103267.25;4789172;30;20092;-82
2022/01/26 11:27:41;;;;;;;232.77;63.75;;;;;;;3.17;86.50;103249.31;4789239;30;20031;-81
2022/01/26 11:30:41;;;;;;;226.02;64.88;;;;;;;2.71;86.55;103161.38;4790189;30;20028;-82
2022/01/26 13:52:52;;;;;;;253.70;68.35;;;;;;;3.95;84.17;103157.69;4790967;30;20039;-79
2022/01/26 14:00:25;;;;;;;250.55;69.95;;;;;;;4.11;83.75;103161.09;4790725;30;20042;-79
2022/01/26 14:02:56;;;;;;;254.98;68.45;;;;;;;4.06;83.71;103152.59;4788482;30;20074;-79
2022/01/26 14:05:28;;;;;;;250.82;68.72;;;;;;;3.97;84.29;103146.59;4790064;29;20038;-79
2022/01/26 14:10:28;;;;;;;260.15;71.45;;;;;;;3.72;83.81;103107.34;5180241;24;20420;-79
2022/01/26 14:12:54;;;;;;;246.27;67.78;;;;;;;3.87;84.10;103128.69;4790274;30;20035;-85
2022/01/26 14:15:26;;;;;;;251.95;69.60;;;;;;;3.93;84.67;103144.91;4790495;30;20027;-83
2022/01/26 14:20:39;;;;;;;251.20;69.47;;;;;;;3.71;84.89;103118.44;4789925;29;20035;-79
2022/01/26 14:25:29;;;;;;;242.95;72.60;;;;;;;3.72;84.92;103127.78;4789624;30;20036;-80
2022/01/26 14:28:01;;;;;;;255.50;69.10;;;;;;;3.79;85.28;103138.03;4790119;30;20161;-81
2022/01/26 15:20:12;;;;;;;232.13;63.63;;;;;;;3.66;85.76;103144.84;4771100;30;20050;-79
2022/01/26 15:31:18;;;;;;;230.90;65.35;;;;;;;3.45;85.56;103126.03;4789561;30;20069;-81
2022/01/26 16:17:39;;;;;;;250.93;67.85;;;;;;;2.24;86.77;102937.50;4806777;29;20042;-81
2022/01/26 18:49:35;;;;;;;251.90;68.43;;;;;;;2.90;88.79;103085.78;4756255;30;20496;-79
2022/01/26 18:56:11;;;;;;;250.23;66.78;;;;;;;2.90;88.21;103073.88;4784381;29;20660;-77
2022/01/26 18:58:36;;;;;;;253.00;62.78;;;;;;;2.87;88.11;103072.19;4789696;30;20104;-78
2022/01/26 19:01:01;;;;;;;249.93;61.90;;;;;;;2.83;87.93;103054.28;4789594;30;20115;-78
2022/01/26 19:03:27;;;;;;;264.58;70.85;;;;;;;2.63;88.07;103032.91;4789691;30;20035;-78
2022/01/26 19:05:54;;;;;;;239.73;64.95;;;;;;;2.78;88.12;103061.91;4789059;30;20166;-80
2022/01/26 19:08:21;;;;;;;244.90;66.18;;;;;;;2.83;87.89;103077.25;4789381;30;20059;-80
2022/01/26 19:10:57;;;;;;;233.82;61.45;;;;;;;2.72;88.18;103041.47;4789428;30;20039;-80
2022/01/26 19:13:28;;;;;;;246.77;70.05;;;;;;;2.88;88.44;103070.47;4789326;30;20476;-80
2022/01/26 19:15:58;;;;;;;256.85;64.45;;;;;;;2.69;88.27;103036.34;4789292;30;20077;-79
2022/01/26 19:18:36;;;;;;;253.98;61.47;;;;;;;2.77;88.31;103054.25;4789317;30;20035;-82
2022/01/26 19:21:13;;;;;;;237.75;61.13;;;;;;;2.84;87.99;103068.72;4789093;30;20031;-80
2022/01/26 19:24:12;;;;;;;233.90;63.65;;;;;;;2.83;87.93;103072.13;4789359;30;20051;-81
2022/01/26 19:26:45;;;;;;;243.98;62.60;;;;;;;2.68;88.20;103052.50;4788340;29;20039;-80
2022/01/26 19:29:24;;;;;;;252.23;63.42;;;;;;;2.81;88.03;103067.03;4788730;30;20116;-80
2022/01/26 19:32:35;;;;;;;237.23;63.33;;;;;;;2.83;87.99;103067.03;4789030;30;20028;-81
2022/01/26 19:51:07;;;;;;;248.60;59.28;;;;;;;2.86;87.97;103051.75;4770953;29;20052;-80
2022/01/26 20:21:28;;;;;;;259.00;65.13;;;;;;;2.75;88.51;102999.81;4788592;30;20050;-80
2022/01/26 20:31:45;;;;;;;235.47;58.13;;;;;;;2.69;88.44;102977.69;4733207;30;20043;-79
2022/01/26 22:28:45;;;;;;;205.25;59.53;;;;;;;2.38;87.68;102827.97;5038469;24;20091;-80
2022/01/26 22:31:50;;;;;;;200.48;58.60;;;;;;;3.02;87.30;102928.44;4769955;30;20098;-80
2022/01/26 22:38:37;;;;;;;196.50;58.50;;;;;;;3.06;86.61;102914.00;4703288;30;20132;-79
2022/01/26 23:09:55;;;;;;;178.45;55.92;;;;;;;3.07;86.05;102888.47;4807433;29;20767;-80
2022/01/26 23:23:31;;;;;;;177.65;56.38;;;;;;;2.01;86.04;102706.34;4771659;30;20063;-81
